Time;durP1;ratioP1;P1;durP2;ratioP2;P2;SDS_P1;SDS_P2;PMS_P1;PMS_P2;Temp;Humidity;BMP_temperature;BMP_pressure;BME280_temperature;BME280_humidity;BME280_pressure;Samples;Min_cycle;Max_cycle;Signal;HPM_P1;HPM_P2
2021/06/06 00:00:15;;;;;;;25.77;23.50;;;19.40;99.90;;;;;;5075289;28;20981;-88
2021/06/06 00:02:42;;;;;;;26.87;24.57;;;19.40;99.90;;;;;;5075274;28;20398;-88
2021/06/06 00:05:10;;;;;;;29.30;26.87;;;19.30;99.90;;;;;;5074692;28;20470;-88
2021/06/06 00:07:35;;;;;;;28.47;26.17;;;19.30;99.90;;;;;;5074116;28;20425;-88
2021/06/06 00:10:01;;;;;;;29.40;26.90;;;19.30;99.90;;;;;;5056947;28;20430;-89
2021/06/06 00:12:27;;;;;;;28.90;26.27;;;19.20;99.90;;;;;;5075024;28;20800;-89
2021/06/06 00:14:55;;;;;;;28.90;26.30;;;19.10;99.90;;;;;;5074930;28;20302;-89
2021/06/06 00:17:21;;;;;;;27.60;25.30;;;19.20;99.90;;;;;;5074980;28;20255;-88
2021/06/06 00:19:46;;;;;;;28.23;25.73;;;19.20;99.90;;;;;;5074471;28;20507;-89
2021/06/06 00:22:12;;;;;;;29.47;26.97;;;19.20;99.90;;;;;;5075171;28;20256;-88
2021/06/06 00:24:38;;;;;;;29.40;26.60;;;19.20;99.90;;;;;;5057002;28;20665;-89
2021/06/06 00:27:04;;;;;;;30.27;27.77;;;19.20;99.90;;;;;;5074859;28;20179;-88
2021/06/06 00:29:30;;;;;;;27.67;25.37;;;19.40;99.90;;;;;;5074819;28;20422;-86
2021/06/06 00:31:56;;;;;;;31.47;28.57;;;19.40;99.90;;;;;;5074537;28;20414;-89
2021/06/06 00:34:23;;;;;;;30.23;27.50;;;19.40;99.90;;;;;;5074189;28;20522;-88
2021/06/06 00:36:49;;;;;;;29.47;26.77;;;19.40;99.90;;;;;;5074378;28;20428;-88
2021/06/06 00:39:15;;;;;;;28.43;26.03;;;19.40;99.90;;;;;;5074600;28;20413;-89
2021/06/06 00:41:44;;;;;;;29.97;27.37;;;19.50;99.90;;;;;;5074497;28;20417;-88
2021/06/06 00:44:10;;;;;;;29.33;26.83;;;19.50;99.90;;;;;;5074199;28;20421;-86
2021/06/06 00:46:36;;;;;;;29.43;26.83;;;19.50;99.90;;;;;;5074480;28;20529;-89
2021/06/06 00:49:03;;;;;;;27.67;25.03;;;19.40;99.90;;;;;;5073869;28;20418;-88
2021/06/06 00:51:35;;;;;;;31.10;28.50;;;19.50;99.90;;;;;;5074164;28;20418;-89
2021/06/06 00:54:23;;;;;;;29.97;27.37;;;19.40;99.90;;;;;;5073875;28;20408;-88
2021/06/06 00:56:53;;;;;;;30.53;28.00;;;19.40;99.90;;;;;;5074141;28;20770;-89
2021/06/06 00:59:22;;;;;;;30.60;28.00;;;19.40;99.90;;;;;;5074038;28;20943;-87
2021/06/06 01:01:48;;;;;;;30.70;28.10;;;19.30;99.90;;;;;;5074097;28;20870;-88
2021/06/06 01:04:14;;;;;;;30.27;27.57;;;19.30;99.90;;;;;;5073623;28;20490;-89
2021/06/06 01:06:52;;;;;;;29.23;26.60;;;19.20;99.90;;;;;;5074000;28;20427;-89
2021/06/06 01:09:21;;;;;;;32.27;29.47;;;19.20;99.90;;;;;;5074143;28;20440;-88
2021/06/06 01:11:58;;;;;;;30.60;27.80;;;19.20;99.90;;;;;;5074283;28;20955;-93
2021/06/06 01:14:34;;;;;;;30.90;28.10;;;19.10;99.90;;;;;;5056926;28;20413;-90
2021/06/06 01:17:17;;;;;;;34.90;31.50;;;19.20;99.90;;;;;;5074776;28;20433;-91
2021/06/06 01:20:06;;;;;;;34.50;31.47;;;19.10;99.90;;;;;;5074270;28;20405;-90
2021/06/06 01:22:53;;;;;;;36.03;32.57;;;19.10;99.90;;;;;;5074697;28;20411;-91
2021/06/06 01:25:24;;;;;;;36.73;33.40;;;19.10;99.90;;;;;;5074292;28;20472;-91
2021/06/06 01:28:00;;;;;;;39.40;35.60;;;19.10;99.90;;;;;;5074418;28;20904;-89
2021/06/06 01:30:31;;;;;;;39.87;35.90;;;19.10;99.90;;;;;;5074295;28;21042;-92
2021/06/06 01:33:24;;;;;;;37.97;34.37;;;19.10;99.90;;;;;;5074361;28;20410;-90
2021/06/06 01:35:57;;;;;;;39.70;35.83;;;19.10;99.90;;;;;;5074167;28;20477;-90
2021/06/06 01:38:35;;;;;;;41.13;37.27;;;19.10;99.90;;;;;;5074387;28;20414;-91
2021/06/06 01:41:07;;;;;;;41.37;37.40;;;19.10;99.90;;;;;;5074134;28;20401;-91
2021/06/06 01:43:38;;;;;;;44.47;40.17;;;19.00;99.90;;;;;;5056321;28;20414;-92
2021/06/06 01:46:13;;;;;;;43.17;39.03;;;19.00;99.90;;;;;;5073859;28;20990;-89
2021/06/06 01:48:41;;;;;;;40.20;36.30;;;19.00;99.90;;;;;;5073744;28;20496;-91
2021/06/06 01:51:29;;;;;;;44.87;40.77;;;19.00;99.90;;;;;;5073791;28;20469;-88
2021/06/06 01:53:55;;;;;;;49.40;44.60;;;19.00;99.90;;;;;;5055148;28;20445;-90
2021/06/06 01:56:29;;;;;;;47.60;42.80;;;18.90;99.90;;;;;;5074336;28;20413;-90
2021/06/06 01:59:01;;;;;;;49.43;44.57;;;18.90;99.90;;;;;;5078901;28;20414;-88
2021/06/06 02:01:28;;;;;;;48.37;43.67;;;18.90;99.90;;;;;;5079905;28;20428;-89
2021/06/06 02:03:57;;;;;;;50.60;45.60;;;18.90;99.90;;;;;;5077579;28;20414;-91
2021/06/06 02:06:47;;;;;;;50.33;45.53;;;18.90;99.90;;;;;;5074676;28;21010;-92
2021/06/06 02:09:19;;;;;;;51.83;46.70;;;18.90;99.90;;;;;;5056671;28;20500;-92
2021/06/06 02:11:55;;;;;;;52.90;47.60;;;18.80;99.90;;;;;;5074040;28;20568;-88
2021/06/06 02:14:25;;;;;;;52.77;47.47;;;18.90;99.90;;;;;;5073815;28;20452;-91
2021/06/06 02:16:54;;;;;;;54.30;49.00;;;18.90;99.90;;;;;;5074047;28;20440;-92
2021/06/06 02:19:24;;;;;;;51.37;46.23;;;18.90;99.90;;;;;;5073807;28;20416;-90
2021/06/06 02:21:58;;;;;;;52.33;47.00;;;18.80;99.90;;;;;;5074117;28;20982;-91
2021/06/06 02:24:24;;;;;;;54.00;48.47;;;18.80;99.90;;;;;;5073983;28;20773;-89
2021/06/06 02:26:51;;;;;;;54.03;48.60;;;18.80;99.90;;;;;;5074140;28;20463;-90
2021/06/06 02:29:27;;;;;;;56.37;50.90;;;18.80;99.90;;;;;;5073983;28;20511;-91
2021/06/06 02:32:15;;;;;;;52.70;47.30;;;18.80;99.90;;;;;;5076013;28;20827;-90
2021/06/06 02:35:05;;;;;;;51.60;46.40;;;18.80;99.90;;;;;;5058893;28;20517;-89
2021/06/06 02:37:47;;;;;;;54.57;48.87;;;18.80;99.90;;;;;;5077095;28;20804;-89
2021/06/06 02:40:24;;;;;;;53.87;48.20;;;18.80;99.90;;;;;;5077001;28;20436;-89
2021/06/06 02:42:51;;;;;;;53.20;47.70;;;18.70;99.90;;;;;;5076913;28;20420;-89
2021/06/06 02:45:27;;;;;;;54.80;49.30;;;18.70;99.90;;;;;;5076636;28;20847;-88
2021/06/06 02:47:56;;;;;;;54.30;48.70;;;18.80;99.90;;;;;;5076836;28;20748;-90
2021/06/06 02:50:29;;;;;;;55.80;49.90;;;18.70;99.90;;;;;;5076658;28;20913;-89
2021/06/06 02:53:06;;;;;;;55.03;49.43;;;18.70;99.90;;;;;;5076840;28;20420;-89
2021/06/06 02:55:40;;;;;;;54.40;48.97;;;18.70;99.90;;;;;;5076369;28;20422;-87
2021/06/06 02:58:16;;;;;;;55.10;49.43;;;18.60;99.90;;;;;;5076200;28;20414;-86
2021/06/06 03:00:46;;;;;;;53.47;48.00;;;18.60;99.90;;;;;;5076228;28;20431;-87
2021/06/06 03:03:25;;;;;;;55.10;49.37;;;18.60;99.90;;;;;;5076108;28;20853;-87
2021/06/06 03:05:53;;;;;;;54.07;48.53;;;18.60;99.90;;;;;;5076056;28;20496;-86
2021/06/06 03:08:19;;;;;;;55.13;49.53;;;18.50;99.90;;;;;;5076145;28;20478;-87
2021/06/06 03:10:45;;;;;;;51.50;46.10;;;18.50;99.90;;;;;;5075742;28;21011;-87
2021/06/06 03:13:24;;;;;;;52.70;47.07;;;18.50;99.90;;;;;;5075924;28;20194;-86
2021/06/06 03:15:54;;;;;;;49.20;44.50;;;18.60;99.90;;;;;;5075875;28;20487;-86
2021/06/06 03:18:21;;;;;;;53.03;47.50;;;18.60;99.90;;;;;;5075514;28;20439;-87
2021/06/06 03:20:52;;;;;;;56.47;50.37;;;18.60;99.90;;;;;;5075762;28;20416;-87
2021/06/06 03:23:26;;;;;;;56.70;50.73;;;18.60;99.90;;;;;;5075812;28;20918;-84
2021/06/06 03:26:05;;;;;;;56.63;50.73;;;18.50;99.90;;;;;;5075642;28;20459;-87
2021/06/06 03:28:34;;;;;;;57.30;51.33;;;18.50;99.90;;;;;;5075810;28;20458;-87
2021/06/06 03:31:06;;;;;;;59.77;53.67;;;18.50;99.90;;;;;;5075621;28;20423;-87
2021/06/06 03:33:53;;;;;;;54.37;48.77;;;18.40;99.90;;;;;;5075267;28;20497;-88
2021/06/06 03:36:41;;;;;;;55.23;49.27;;;18.40;99.90;;;;;;5075328;28;20473;-86
2021/06/06 03:39:11;;;;;;;58.13;51.97;;;18.40;99.90;;;;;;5075548;28;20406;-86
2021/06/06 03:41:37;;;;;;;58.40;52.50;;;18.40;99.90;;;;;;5057542;28;20491;-88
2021/06/06 03:44:04;;;;;;;61.83;55.13;;;18.40;99.90;;;;;;5057394;28;20413;-87
2021/06/06 03:46:30;;;;;;;60.20;53.23;;;18.30;99.90;;;;;;5075286;28;20497;-88
2021/06/06 03:48:57;;;;;;;59.77;53.27;;;18.30;99.90;;;;;;5074978;28;20461;-87
2021/06/06 03:51:23;;;;;;;58.73;52.67;;;18.20;99.90;;;;;;5075443;28;20416;-88
2021/06/06 03:53:48;;;;;;;59.67;53.40;;;18.20;99.90;;;;;;5057264;28;20505;-88
2021/06/06 03:56:14;;;;;;;61.93;55.47;;;18.30;99.90;;;;;;5075254;28;20509;-87
2021/06/06 03:58:41;;;;;;;60.57;54.10;;;18.10;99.90;;;;;;5075135;28;20200;-87
2021/06/06 04:01:08;;;;;;;59.97;53.37;;;18.10;99.90;;;;;;5057137;28;20457;-87
2021/06/06 04:03:34;;;;;;;60.57;53.27;;;18.20;99.90;;;;;;5074677;28;20404;-86
2021/06/06 04:06:02;;;;;;;60.27;53.87;;;18.20;99.90;;;;;;5074853;28;20527;-87
2021/06/06 04:08:27;;;;;;;63.10;55.77;;;18.10;99.90;;;;;;5074951;28;20168;-87
2021/06/06 04:10:54;;;;;;;68.80;57.77;;;18.10;99.90;;;;;;5074732;28;20468;-88
2021/06/06 04:13:19;;;;;;;70.50;57.07;;;18.10;99.90;;;;;;5074945;28;20258;-86
2021/06/06 04:15:45;;;;;;;61.40;55.00;;;18.10;99.90;;;;;;5074957;28;20461;-87
2021/06/06 04:18:18;;;;;;;64.07;57.23;;;18.00;99.90;;;;;;5074480;28;20251;-86
2021/06/06 04:20:46;;;;;;;63.37;56.30;;;18.10;99.90;;;;;;5075007;28;20196;-88
2021/06/06 04:23:12;;;;;;;68.60;59.63;;;18.10;99.90;;;;;;5075123;28;20422;-89
2021/06/06 04:25:39;;;;;;;67.13;59.87;;;18.00;99.90;;;;;;5074616;28;20501;-87
2021/06/06 04:28:06;;;;;;;66.47;57.73;;;18.00;99.90;;;;;;5074668;28;20424;-87
2021/06/06 04:30:32;;;;;;;69.67;59.70;;;17.90;99.90;;;;;;5074675;28;20504;-87
2021/06/06 04:32:58;;;;;;;73.37;58.23;;;17.90;99.90;;;;;;5074467;28;20420;-88
2021/06/06 04:35:24;;;;;;;67.27;56.97;;;17.80;99.90;;;;;;5074060;28;20778;-87
2021/06/06 04:37:49;;;;;;;65.77;57.53;;;17.80;99.90;;;;;;5074347;28;20467;-85
2021/06/06 04:40:16;;;;;;;71.80;60.77;;;17.80;99.90;;;;;;5056440;28;20448;-87
2021/06/06 04:42:43;;;;;;;68.30;58.23;;;17.80;99.90;;;;;;5074331;28;20260;-87
2021/06/06 04:45:10;;;;;;;71.90;58.77;;;17.80;99.90;;;;;;5074084;28;20455;-87
2021/06/06 04:47:36;;;;;;;67.40;57.90;;;17.70;99.90;;;;;;5074129;28;20782;-88
2021/06/06 04:50:05;;;;;;;64.40;56.97;;;17.80;99.90;;;;;;5073652;28;20416;-86
2021/06/06 04:52:36;;;;;;;66.13;54.60;;;17.70;99.90;;;;;;5056127;28;20197;-88
2021/06/06 04:55:23;;;;;;;64.93;54.90;;;17.70;99.90;;;;;;5073550;28;20909;-88
2021/06/06 04:57:48;;;;;;;63.87;56.20;;;17.70;99.90;;;;;;5073445;28;20429;-86
2021/06/06 05:00:19;;;;;;;61.73;55.10;;;17.80;99.90;;;;;;5073858;28;20525;-86
2021/06/06 05:02:45;;;;;;;63.57;52.90;;;17.70;99.90;;;;;;5073931;28;20193;-86
2021/06/06 05:05:11;;;;;;;62.80;54.73;;;17.80;99.90;;;;;;5073304;28;20466;-85
2021/06/06 05:07:37;;;;;;;55.20;49.07;;;17.70;99.90;;;;;;5055940;28;20174;-87
2021/06/06 05:10:06;;;;;;;55.63;48.57;;;17.80;99.90;;;;;;5073510;28;20425;-87
2021/06/06 05:12:32;;;;;;;60.93;48.73;;;17.70;99.90;;;;;;5073593;28;20505;-86
2021/06/06 05:14:57;;;;;;;57.13;48.80;;;17.70;99.90;;;;;;5073648;28;20425;-87
2021/06/06 05:17:23;;;;;;;56.10;50.00;;;17.80;99.90;;;;;;5073640;28;20175;-86
2021/06/06 05:19:49;;;;;;;53.27;47.47;;;17.80;99.90;;;;;;5073179;28;20834;-87
2021/06/06 05:22:14;;;;;;;56.80;49.57;;;17.70;99.90;;;;;;5073708;28;20316;-88
2021/06/06 05:24:40;;;;;;;57.73;51.60;;;17.70;99.90;;;;;;5073363;28;20667;-86
2021/06/06 05:27:06;;;;;;;55.50;48.53;;;17.70;99.90;;;;;;5073551;28;20469;-87
2021/06/06 05:29:31;;;;;;;53.00;46.70;;;17.80;99.90;;;;;;5073412;28;20181;-88
2021/06/06 05:31:57;;;;;;;54.67;48.83;;;17.80;99.90;;;;;;5073250;28;20175;-87
2021/06/06 05:34:23;;;;;;;53.03;46.80;;;17.80;99.90;;;;;;5073208;28;20171;-86
2021/06/06 05:36:48;;;;;;;59.20;50.70;;;17.70;99.90;;;;;;5073516;28;20182;-87
2021/06/06 05:39:14;;;;;;;53.43;47.13;;;17.90;99.90;;;;;;5073433;28;20579;-87
2021/06/06 05:41:40;;;;;;;52.97;46.80;;;17.90;99.90;;;;;;5073345;28;20194;-87
2021/06/06 05:44:06;;;;;;;51.00;45.50;;;17.80;99.90;;;;;;5073451;28;20163;-86
2021/06/06 05:46:33;;;;;;;52.63;45.40;;;17.80;99.90;;;;;;5055573;28;20474;-87
2021/06/06 05:48:58;;;;;;;50.47;44.40;;;17.80;99.90;;;;;;5054881;28;20492;-87
2021/06/06 05:51:24;;;;;;;48.13;43.10;;;17.70;99.90;;;;;;5073239;28;20417;-86
2021/06/06 05:53:50;;;;;;;52.00;45.67;;;17.70;99.90;;;;;;5073274;28;20218;-87
2021/06/06 05:56:16;;;;;;;51.40;46.00;;;17.80;99.90;;;;;;5073240;28;20631;-83
2021/06/06 05:58:42;;;;;;;49.90;44.00;;;17.60;99.90;;;;;;5055281;28;20421;-83
2021/06/06 06:01:09;;;;;;;51.07;44.67;;;17.70;99.90;;;;;;5073133;28;20171;-86
2021/06/06 06:03:35;;;;;;;51.93;46.40;;;17.70;99.90;;;;;;5072674;28;20422;-88
2021/06/06 06:06:01;;;;;;;52.50;46.80;;;17.70;99.90;;;;;;5073518;28;20496;-87
2021/06/06 06:08:33;;;;;;;52.03;46.23;;;17.70;99.90;;;;;;5076694;28;20206;-87
2021/06/06 06:10:58;;;;;;;51.97;46.03;;;17.70;99.90;;;;;;5076276;28;20529;-88
2021/06/06 06:13:27;;;;;;;54.40;47.20;;;17.70;99.90;;;;;;5065780;28;20439;-86
2021/06/06 06:15:54;;;;;;;49.47;44.17;;;17.60;99.90;;;;;;5072257;28;20263;-87
2021/06/06 06:18:23;;;;;;;49.80;43.23;;;17.60;99.90;;;;;;5076054;28;20423;-83
2021/06/06 06:20:49;;;;;;;48.47;43.37;;;17.60;99.90;;;;;;5076430;28;20573;-84
2021/06/06 06:23:15;;;;;;;46.53;40.53;;;17.70;99.90;;;;;;5058716;28;20530;-83
2021/06/06 06:25:40;;;;;;;41.77;37.37;;;17.70;99.90;;;;;;5076337;28;20861;-85
2021/06/06 06:28:07;;;;;;;37.93;33.90;;;17.70;99.90;;;;;;5076390;28;20410;-84
2021/06/06 06:30:35;;;;;;;38.37;34.50;;;17.80;99.90;;;;;;5076409;28;20175;-85
2021/06/06 06:33:02;;;;;;;37.60;33.07;;;17.80;99.90;;;;;;5075738;28;20429;-84
2021/06/06 06:35:29;;;;;;;35.50;31.80;;;17.80;99.90;;;;;;5076336;28;20438;-83
2021/06/06 06:37:55;;;;;;;35.13;31.60;;;17.80;99.90;;;;;;5076275;28;20956;-86
2021/06/06 06:40:21;;;;;;;29.57;26.67;;;17.70;99.90;;;;;;5076236;28;20424;-84
2021/06/06 06:42:49;;;;;;;28.17;25.20;;;17.80;99.90;;;;;;5058215;28;20416;-85
2021/06/06 06:45:22;;;;;;;29.97;26.90;;;17.70;99.90;;;;;;5075988;28;20562;-87
2021/06/06 06:47:47;;;;;;;27.40;24.70;;;17.70;99.90;;;;;;5075729;28;20410;-85
2021/06/06 06:50:17;;;;;;;27.27;24.57;;;17.80;99.90;;;;;;5075810;28;20508;-84
2021/06/06 06:52:42;;;;;;;25.30;22.90;;;17.90;99.90;;;;;;5075730;28;20657;-83
2021/06/06 06:55:13;;;;;;;28.30;25.43;;;17.90;99.90;;;;;;5075951;28;20417;-83
2021/06/06 06:57:38;;;;;;;31.00;27.93;;;17.90;99.90;;;;;;5075916;28;20179;-84
2021/06/06 07:00:09;;;;;;;33.07;29.53;;;18.00;99.90;;;;;;5075826;28;20442;-85
2021/06/06 07:02:35;;;;;;;32.27;29.00;;;17.90;99.90;;;;;;5075649;28;20182;-83
2021/06/06 07:05:02;;;;;;;31.20;28.00;;;17.90;99.90;;;;;;5075461;28;20470;-85
2021/06/06 07:07:28;;;;;;;34.43;30.30;;;18.00;99.90;;;;;;5075518;28;20178;-84
2021/06/06 07:09:53;;;;;;;34.90;29.40;;;18.00;99.90;;;;;;5075557;28;20419;-84
2021/06/06 07:12:19;;;;;;;30.63;27.53;;;18.00;99.90;;;;;;5075407;28;20256;-82
2021/06/06 07:14:45;;;;;;;33.53;30.17;;;18.10;99.90;;;;;;5075596;28;20194;-84
2021/06/06 07:17:10;;;;;;;31.90;28.63;;;18.20;99.90;;;;;;5075084;28;20179;-85
2021/06/06 07:19:36;;;;;;;30.37;27.27;;;18.30;99.90;;;;;;5075055;28;20180;-84
2021/06/06 07:22:02;;;;;;;32.03;28.80;;;18.40;99.90;;;;;;5057501;28;20172;-85
2021/06/06 07:24:28;;;;;;;34.17;30.57;;;18.30;99.90;;;;;;5057504;28;20199;-85
2021/06/06 07:26:54;;;;;;;37.03;33.37;;;18.40;99.90;;;;;;5057634;28;20463;-83
2021/06/06 07:29:23;;;;;;;38.20;34.30;;;18.40;99.90;;;;;;5075463;28;20172;-83
2021/06/06 07:31:54;;;;;;;39.77;35.57;;;18.40;99.90;;;;;;5057390;28;20259;-83
2021/06/06 07:34:20;;;;;;;41.33;35.97;;;18.40;99.90;;;;;;5075027;28;20443;-86
2021/06/06 07:36:46;;;;;;;43.67;38.90;;;18.30;99.90;;;;;;5075368;28;20454;-86
2021/06/06 07:39:13;;;;;;;42.20;37.57;;;18.30;99.90;;;;;;5057360;28;20432;-84
2021/06/06 07:41:39;;;;;;;42.57;37.53;;;18.40;99.90;;;;;;5048820;28;20987;-86
2021/06/06 07:44:05;;;;;;;42.00;37.43;;;18.50;99.90;;;;;;5073817;28;20421;-85
2021/06/06 07:46:31;;;;;;;41.77;37.17;;;18.60;99.90;;;;;;5075424;28;20502;-85
2021/06/06 07:48:56;;;;;;;41.73;36.40;;;18.60;99.90;;;;;;5075102;28;20257;-83
2021/06/06 07:51:22;;;;;;;41.67;37.20;;;18.60;99.90;;;;;;5075136;28;20178;-85
2021/06/06 07:53:49;;;;;;;38.27;34.27;;;18.50;99.90;;;;;;5075412;28;20657;-84
2021/06/06 07:56:15;;;;;;;40.40;36.40;;;18.50;99.90;;;;;;5075285;28;20448;-85
2021/06/06 07:58:41;;;;;;;39.97;35.73;;;18.50;99.90;;;;;;5075150;28;20430;-83
2021/06/06 08:01:08;;;;;;;38.93;34.80;;;18.50;99.90;;;;;;5075084;28;20177;-83
2021/06/06 08:03:34;;;;;;;42.07;36.97;;;18.50;99.90;;;;;;5056965;28;20173;-85
2021/06/06 08:06:01;;;;;;;42.60;38.03;;;18.50;99.90;;;;;;5074925;28;20477;-84
2021/06/06 08:08:27;;;;;;;39.60;35.40;;;18.60;99.90;;;;;;5074908;28;20413;-85
2021/06/06 08:10:57;;;;;;;39.87;34.13;;;18.60;99.90;;;;;;5074582;28;20463;-86
2021/06/06 08:13:23;;;;;;;38.07;34.23;;;18.60;99.90;;;;;;5074831;28;20416;-84
2021/06/06 08:15:50;;;;;;;38.43;34.33;;;18.60;99.90;;;;;;5074870;28;20416;-85
2021/06/06 08:18:30;;;;;;;41.30;36.70;;;18.60;99.90;;;;;;5056559;28;20416;-88
2021/06/06 08:21:07;;;;;;;42.57;38.07;;;18.60;99.90;;;;;;5074771;28;20409;-86
2021/06/06 08:23:33;;;;;;;43.23;38.20;;;18.60;99.90;;;;;;5074597;28;20441;-88
2021/06/06 08:26:00;;;;;;;42.40;34.37;;;18.60;99.90;;;;;;5074578;28;20470;-87
2021/06/06 08:28:26;;;;;;;37.40;33.43;;;18.60;99.90;;;;;;5074115;28;20785;-85
2021/06/06 08:30:56;;;;;;;38.13;33.93;;;18.70;99.90;;;;;;5074145;28;20989;-85
2021/06/06 08:33:26;;;;;;;37.70;33.60;;;18.80;99.90;;;;;;5074098;28;20423;-85
2021/06/06 08:35:54;;;;;;;38.43;34.17;;;18.80;99.90;;;;;;5074334;28;20413;-87
2021/06/06 08:38:20;;;;;;;40.37;33.10;;;18.90;99.90;;;;;;5074212;28;20417;-85
2021/06/06 08:40:50;;;;;;;38.73;33.40;;;19.00;99.90;;;;;;5074260;28;20424;-85
2021/06/06 08:43:15;;;;;;;37.77;33.60;;;19.00;99.90;;;;;;5074173;28;20470;-84
2021/06/06 08:45:50;;;;;;;38.97;34.73;;;19.10;99.90;;;;;;5073914;28;20469;-84
2021/06/06 08:48:20;;;;;;;37.70;33.57;;;19.10;99.90;;;;;;5073659;28;20182;-86
2021/06/06 08:50:55;;;;;;;34.77;30.97;;;19.20;99.90;;;;;;5073897;28;20928;-85
2021/06/06 08:53:29;;;;;;;32.83;29.43;;;19.20;99.90;;;;;;5074146;28;20421;-86
2021/06/06 08:56:20;;;;;;;37.10;31.87;;;19.40;99.90;;;;;;5056291;28;20516;-86
2021/06/06 08:58:48;;;;;;;34.30;30.30;;;19.40;99.90;;;;;;5073941;28;20742;-86
2021/06/06 09:01:32;;;;;;;32.47;28.80;;;19.40;99.90;;;;;;5073999;28;20409;-87
2021/06/06 09:03:59;;;;;;;32.70;29.23;;;19.40;99.90;;;;;;5073519;28;20421;-84
2021/06/06 09:06:43;;;;;;;31.20;28.10;;;19.50;99.90;;;;;;5055721;28;20521;-85
2021/06/06 09:09:10;;;;;;;29.43;26.53;;;19.70;99.90;;;;;;5073772;28;20419;-85
2021/06/06 09:11:36;;;;;;;32.87;29.40;;;19.70;99.90;;;;;;5073362;28;20461;-85
2021/06/06 09:14:03;;;;;;;35.80;30.90;;;19.60;99.90;;;;;;5073558;28;20494;-85
2021/06/06 09:16:54;;;;;;;33.10;29.40;;;19.60;99.90;;;;;;5073391;28;20461;-85
2021/06/06 09:19:22;;;;;;;37.57;29.97;;;19.60;99.90;;;;;;5055264;28;20445;-86
2021/06/06 09:21:57;;;;;;;37.47;33.63;;;19.70;99.90;;;;;;5073477;28;20429;-84
2021/06/06 09:24:37;;;;;;;36.13;32.23;;;19.80;99.90;;;;;;5073355;28;20493;-84
2021/06/06 09:27:24;;;;;;;39.37;34.33;;;20.00;99.90;;;;;;5073458;28;20429;-84
2021/06/06 09:30:05;;;;;;;36.43;32.50;;;20.20;99.90;;;;;;5073228;28;20959;-84
2021/06/06 09:32:32;;;;;;;37.60;33.57;;;20.30;99.90;;;;;;5072936;28;20439;-83
2021/06/06 09:35:27;;;;;;;39.97;35.87;;;20.20;99.90;;;;;;5072987;28;20413;-83
2021/06/06 09:38:18;;;;;;;39.03;34.87;;;20.20;99.90;;;;;;5073081;28;20423;-83
2021/06/06 09:40:47;;;;;;;40.73;36.23;;;20.20;99.90;;;;;;5063831;28;20514;-83
2021/06/06 09:43:28;;;;;;;38.07;34.00;;;20.20;99.90;;;;;;5073071;28;20406;-84
2021/06/06 09:46:09;;;;;;;38.07;34.07;;;20.40;99.90;;;;;;5055531;28;20524;-84
2021/06/06 09:48:39;;;;;;;37.50;33.40;;;20.50;99.90;;;;;;5072897;28;20441;-85
2021/06/06 09:51:24;;;;;;;35.97;32.23;;;20.50;99.90;;;;;;5073171;28;20426;-84
2021/06/06 09:53:55;;;;;;;35.80;32.20;;;20.60;99.90;;;;;;5073061;28;20499;-84
2021/06/06 09:56:21;;;;;;;36.43;32.70;;;20.60;99.90;;;;;;5073118;28;20436;-84
2021/06/06 09:58:48;;;;;;;35.67;31.60;;;20.50;99.90;;;;;;5073044;28;20496;-85
2021/06/06 10:01:25;;;;;;;39.67;35.50;;;20.60;99.90;;;;;;5072979;28;20646;-85
2021/06/06 10:03:57;;;;;;;37.17;33.20;;;20.50;99.90;;;;;;5073259;28;20447;-87
2021/06/06 10:06:27;;;;;;;35.67;31.70;;;20.40;99.90;;;;;;5054871;28;20568;-86
2021/06/06 10:09:03;;;;;;;37.27;33.23;;;20.40;99.90;;;;;;5073008;28;20438;-84
2021/06/06 10:11:40;;;;;;;36.50;32.57;;;20.20;99.90;;;;;;5072634;28;20545;-86
2021/06/06 10:14:07;;;;;;;37.50;33.80;;;20.20;99.90;;;;;;5072850;28;20419;-85
2021/06/06 10:16:39;;;;;;;39.37;35.37;;;20.20;99.90;;;;;;5072721;28;20423;-85
2021/06/06 10:19:15;;;;;;;39.03;34.80;;;20.20;99.90;;;;;;5072592;28;20618;-88
2021/06/06 10:21:43;;;;;;;44.37;38.00;;;20.20;99.90;;;;;;5055198;28;20421;-88
2021/06/06 10:24:14;;;;;;;41.37;37.07;;;20.30;99.90;;;;;;5054942;28;20465;-87
2021/06/06 10:26:51;;;;;;;39.63;35.30;;;20.20;99.90;;;;;;5072576;28;20476;-85
2021/06/06 10:29:23;;;;;;;46.13;41.03;;;20.30;99.90;;;;;;5072816;28;20482;-86
2021/06/06 10:31:50;;;;;;;43.33;38.60;;;20.20;99.90;;;;;;5072810;28;20421;-87
2021/06/06 10:34:15;;;;;;;40.40;35.17;;;20.10;99.90;;;;;;5072366;28;20407;-87
2021/06/06 10:36:41;;;;;;;41.33;36.47;;;19.90;99.90;;;;;;5072831;28;20413;-86
2021/06/06 10:39:15;;;;;;;42.43;34.03;;;19.90;99.90;;;;;;5072417;28;20175;-87
2021/06/06 10:41:54;;;;;;;40.73;34.30;;;20.00;99.90;;;;;;5072823;28;20169;-87
2021/06/06 10:44:32;;;;;;;41.10;33.17;;;19.90;99.90;;;;;;5072825;28;20412;-86
2021/06/06 10:47:07;;;;;;;40.80;34.30;;;19.80;99.90;;;;;;5054286;28;20437;-85
2021/06/06 10:49:46;;;;;;;40.63;35.57;;;19.70;99.90;;;;;;5072631;28;20814;-87
2021/06/06 10:52:27;;;;;;;45.20;39.67;;;19.80;99.90;;;;;;5073395;28;20421;-87
2021/06/06 10:54:57;;;;;;;45.57;39.53;;;19.90;99.90;;;;;;5076247;28;21006;-87
2021/06/06 10:57:25;;;;;;;46.70;39.93;;;19.90;99.90;;;;;;5076268;28;20415;-85
2021/06/06 11:00:21;;;;;;;50.67;41.70;;;20.10;99.90;;;;;;5076322;28;20492;-86
2021/06/06 11:02:50;;;;;;;54.87;45.90;;;20.20;99.90;;;;;;5075750;28;20424;-87
2021/06/06 11:05:33;;;;;;;53.43;43.17;;;20.30;99.90;;;;;;5076085;28;20480;-87
2021/06/06 11:07:59;;;;;;;50.70;43.93;;;20.20;99.90;;;;;;5058184;28;20772;-86
2021/06/06 11:10:24;;;;;;;47.60;42.40;;;20.30;99.90;;;;;;5063132;28;20467;-86
2021/06/06 11:12:54;;;;;;;49.23;41.37;;;20.30;99.90;;;;;;5096198;28;20265;-85
2021/06/06 11:15:32;;;;;;;48.03;41.00;;;20.50;99.90;;;;;;5095997;28;20266;-85
2021/06/06 11:18:11;;;;;;;42.93;38.37;;;20.50;99.90;;;;;;5095683;28;20428;-86
2021/06/06 11:20:54;;;;;;;43.03;37.27;;;20.60;99.90;;;;;;5096050;28;20406;-86
2021/06/06 11:23:41;;;;;;;40.40;36.10;;;20.60;99.90;;;;;;5096035;28;20508;-87
2021/06/06 11:26:40;;;;;;;35.60;31.80;;;20.60;99.90;;;;;;5095905;28;20461;-86
2021/06/06 11:29:14;;;;;;;37.37;33.37;;;20.60;99.90;;;;;;5095953;28;20908;-85
2021/06/06 11:32:11;;;;;;;34.60;31.00;;;20.60;99.90;;;;;;5095863;28;20761;-85
2021/06/06 11:34:40;;;;;;;37.73;33.73;;;20.50;99.90;;;;;;5095943;28;20416;-85
2021/06/06 11:37:06;;;;;;;35.93;31.97;;;20.50;99.90;;;;;;5095778;28;20403;-85
2021/06/06 11:39:34;;;;;;;36.10;32.30;;;20.60;99.90;;;;;;5095730;28;20412;-86
2021/06/06 11:42:01;;;;;;;34.87;31.07;;;20.60;99.90;;;;;;5094449;28;20178;-86
2021/06/06 11:44:32;;;;;;;36.27;32.43;;;20.70;99.90;;;;;;5095678;28;20415;-84
2021/06/06 11:47:32;;;;;;;42.47;37.50;;;20.70;99.90;;;;;;5095243;28;20430;-84
2021/06/06 11:50:09;;;;;;;41.53;37.47;;;20.80;99.90;;;;;;5095437;28;20394;-85
2021/06/06 11:52:45;;;;;;;35.27;31.47;;;20.60;99.90;;;;;;5094375;28;20433;-84
2021/06/06 11:55:32;;;;;;;35.40;31.70;;;20.50;99.90;;;;;;5095383;28;20455;-84
2021/06/06 11:58:21;;;;;;;34.97;31.47;;;20.50;99.90;;;;;;5094198;28;20415;-84
2021/06/06 12:00:55;;;;;;;35.87;32.07;;;20.50;99.90;;;;;;5095438;28;20501;-85
2021/06/06 12:03:25;;;;;;;33.33;29.93;;;20.40;99.90;;;;;;5093975;28;20508;-84
2021/06/06 12:05:59;;;;;;;40.30;36.30;;;20.40;99.90;;;;;;5094754;28;20496;-84
2021/06/06 12:08:40;;;;;;;43.30;38.80;;;20.30;99.90;;;;;;5095087;28;20401;-85
2021/06/06 12:11:20;;;;;;;46.77;41.87;;;20.30;99.90;;;;;;5084893;28;20456;-85
2021/06/06 12:13:50;;;;;;;52.60;47.17;;;20.20;99.90;;;;;;5074985;28;20766;-86
2021/06/06 12:16:25;;;;;;;48.40;43.67;;;20.30;99.90;;;;;;5056778;28;20560;-85
2021/06/06 12:19:07;;;;;;;44.97;40.47;;;20.10;99.90;;;;;;5074401;28;20401;-86
2021/06/06 12:21:38;;;;;;;43.83;39.63;;;20.20;99.90;;;;;;5074631;28;20490;-87
2021/06/06 12:24:20;;;;;;;44.77;40.33;;;20.10;99.90;;;;;;5074682;28;20457;-84
2021/06/06 12:27:04;;;;;;;41.80;37.50;;;20.20;99.90;;;;;;5074412;28;20479;-85
2021/06/06 12:29:39;;;;;;;37.00;32.63;;;20.20;99.90;;;;;;5056509;28;20410;-85
2021/06/06 12:32:14;;;;;;;32.90;29.40;;;20.10;99.90;;;;;;5056221;28;20441;-85
2021/06/06 12:34:40;;;;;;;32.00;28.57;;;20.10;99.90;;;;;;5056493;28;20414;-85
2021/06/06 12:37:11;;;;;;;33.93;30.40;;;20.00;99.90;;;;;;5074310;28;20437;-85
2021/06/06 12:39:41;;;;;;;31.37;28.37;;;19.80;99.90;;;;;;5074404;28;20463;-84
2021/06/06 12:42:08;;;;;;;32.63;29.20;;;19.80;99.90;;;;;;5056077;28;20509;-84
2021/06/06 12:44:39;;;;;;;37.60;32.57;;;19.70;99.90;;;;;;5074107;28;20402;-85
2021/06/06 12:47:08;;;;;;;42.67;38.07;;;19.80;99.90;;;;;;5073566;28;20428;-84